createdAt,value
2022-09-17T00:03:21.101Z,80.07
2022-09-17T00:08:22.731Z,80.69
2022-09-17T00:13:24.762Z,80.20
2022-09-17T00:18:26.789Z,80.66
2022-09-17T00:23:28.490Z,79.65
2022-09-17T00:28:30.103Z,79.73
2022-09-17T00:33:31.704Z,79.87
2022-09-17T00:38:34.207Z,79.40
2022-09-17T00:43:51.664Z,79.40
2022-09-17T00:48:55.234Z,79.31
2022-09-17T00:53:57.130Z,79.40
2022-09-17T00:59:01.575Z,79.33
2022-09-17T01:04:03.852Z,79.28
2022-09-17T01:09:14.499Z,79.54
2022-09-17T01:14:47.961Z,79.69
2022-09-17T01:20:01.691Z,79.85
2022-09-17T01:25:25.062Z,79.84
2022-09-17T01:30:35.544Z,79.88
2022-09-17T01:36:10.879Z,79.87
2022-09-17T01:41:24.866Z,80.26
2022-09-17T01:46:36.037Z,80.03
2022-09-17T01:51:42.352Z,79.85
2022-09-17T01:56:55.089Z,80.29
2022-09-17T02:02:03.672Z,80.24
2022-09-17T02:07:20.177Z,80.01
2022-09-17T02:12:29.781Z,80.41
2022-09-17T02:17:44.380Z,80.72
2022-09-17T02:23:01.644Z,81.02
2022-09-17T02:28:27.093Z,81.30
2022-09-17T02:33:31.989Z,81.32
2022-09-17T02:38:33.661Z,82.05
2022-09-17T02:43:45.295Z,81.55
2022-09-17T02:49:08.830Z,82.07
2022-09-17T02:54:32.299Z,82.20
2022-09-17T03:00:03.112Z,82.43
2022-09-17T03:05:07.553Z,82.17
2022-09-17T03:10:09.402Z,83.14
2022-09-17T03:15:11.122Z,82.79
2022-09-17T03:20:12.848Z,83.54
2022-09-17T03:25:14.734Z,84.08
2022-09-17T03:30:16.388Z,84.16
2022-09-17T03:35:18.145Z,84.60
2022-09-17T03:40:20.093Z,84.83
2022-09-17T03:45:21.881Z,85.10
2022-09-17T03:50:23.664Z,85.25
2022-09-17T03:55:25.333Z,85.97
2022-09-17T04:00:27.374Z,86.09
2022-09-17T04:05:28.973Z,86.90
2022-09-17T04:10:30.581Z,87.42
2022-09-17T04:15:32.209Z,88.23
2022-09-17T04:20:34.296Z,89.02
2022-09-17T04:25:35.886Z,89.90
2022-09-17T04:30:37.636Z,90.84
2022-09-17T04:35:39.286Z,91.48
2022-09-17T04:40:42.408Z,92.17
2022-09-17T04:45:48.137Z,93.20
2022-09-17T04:50:49.887Z,94.85
2022-09-17T04:55:51.600Z,94.79
2022-09-17T05:00:53.240Z,96.03
2022-09-17T05:05:54.902Z,96.04
2022-09-17T05:10:56.668Z,95.95
2022-09-17T05:15:58.431Z,97.04
2022-09-17T05:21:00.078Z,97.48
2022-09-17T05:26:01.743Z,98.65
2022-09-17T05:31:03.825Z,98.92
2022-09-17T05:36:05.821Z,98.79
2022-09-17T05:41:07.534Z,98.76
2022-09-17T05:46:09.309Z,98.75
2022-09-17T05:51:11.740Z,97.71
2022-09-17T05:56:13.446Z,97.87
2022-09-17T06:01:16.320Z,99.82
2022-09-17T06:06:18.176Z,99.03
2022-09-17T06:11:19.787Z,98.59
2022-09-17T06:16:24.749Z,100.00
2022-09-17T06:21:26.426Z,100.00
2022-09-17T06:26:28.041Z,100.00
2022-09-17T06:31:29.690Z,100.00
2022-09-17T06:36:31.307Z,100.00
2022-09-17T06:41:33.299Z,100.00
2022-09-17T06:46:36.630Z,100.00
2022-09-17T06:51:38.322Z,100.00
2022-09-17T06:56:39.919Z,100.00
2022-09-17T07:01:41.837Z,100.00
2022-09-17T07:06:44.041Z,100.00
2022-09-17T07:11:45.847Z,100.00
2022-09-17T07:16:47.507Z,100.00
2022-09-17T07:21:49.318Z,100.00
2022-09-17T07:26:51.711Z,100.00
2022-09-17T07:31:56.190Z,100.00
2022-09-17T07:36:57.780Z,100.00
2022-09-17T07:41:59.876Z,100.00
2022-09-17T07:47:01.566Z,100.00
2022-09-17T07:52:06.485Z,100.00
2022-09-17T07:57:08.188Z,100.00
2022-09-17T08:02:14.107Z,100.00
2022-09-17T08:07:15.845Z,100.00
2022-09-17T08:12:19.510Z,100.00
2022-09-17T08:17:21.099Z,100.00
2022-09-17T08:22:22.688Z,97.26
2022-09-17T08:27:24.268Z,98.07
2022-09-17T08:32:26.501Z,96.30
2022-09-17T08:37:30.851Z,97.23
2022-09-17T08:42:51.635Z,94.29
2022-09-17T08:48:05.126Z,89.52
2022-09-17T08:53:21.253Z,86.99
2022-09-17T08:58:46.928Z,83.26
2022-09-17T09:04:22.021Z,86.91
2022-09-17T09:09:28.495Z,86.82
2022-09-17T09:14:47.290Z,83.68
2022-09-17T09:19:50.073Z,81.67
2022-09-17T09:25:05.711Z,81.29
2022-09-17T09:30:13.513Z,80.33
2022-09-17T09:35:27.539Z,81.33
2022-09-17T09:40:39.308Z,80.08
2022-09-17T09:45:56.888Z,79.30
2022-09-17T09:51:09.812Z,79.99
2022-09-17T09:56:33.097Z,76.75
2022-09-17T10:01:40.985Z,72.86
2022-09-17T10:06:42.810Z,67.28
2022-09-17T10:12:00.239Z,76.28
2022-09-17T10:17:26.794Z,77.47
2022-09-17T10:22:40.094Z,74.82
2022-09-17T10:27:45.510Z,78.81
2022-09-17T10:33:17.516Z,80.23
2022-09-17T10:38:39.352Z,86.89
2022-09-17T10:43:41.770Z,89.26
2022-09-17T10:49:05.999Z,88.98
2022-09-17T10:54:25.993Z,80.81
2022-09-17T10:59:53.235Z,80.12
2022-09-17T11:05:33.070Z,78.99
2022-09-17T11:10:52.770Z,81.44
2022-09-17T11:16:05.342Z,86.01
2022-09-17T11:21:19.708Z,93.57
2022-09-17T11:26:37.534Z,86.73
2022-09-17T11:32:01.048Z,79.20
2022-09-17T11:37:27.053Z,73.44
2022-09-17T11:42:39.349Z,81.39
2022-09-17T11:47:59.006Z,86.15
2022-09-17T11:53:10.674Z,90.43
2022-09-17T11:58:43.904Z,92.02
2022-09-17T12:03:54.623Z,92.16
2022-09-17T12:09:06.273Z,88.92
2022-09-17T12:14:26.969Z,83.11
2022-09-17T12:19:37.604Z,73.25
2022-09-17T12:24:40.441Z,82.37
2022-09-17T12:29:59.658Z,88.12
2022-09-17T12:35:53.082Z,89.85
2022-09-17T12:41:16.068Z,85.51
2022-09-17T12:46:39.123Z,81.48
2022-09-17T12:51:55.431Z,80.36
2022-09-17T12:57:12.157Z,75.72
2022-09-17T13:02:30.952Z,74.04
2022-09-17T13:07:52.718Z,75.23
2022-09-17T13:13:04.991Z,78.24
2022-09-17T13:18:26.166Z,80.72
2022-09-17T13:23:40.645Z,81.02
2022-09-17T13:28:47.444Z,76.38
2022-09-17T13:33:58.286Z,73.98
2022-09-17T13:39:02.201Z,69.41
2022-09-17T13:44:05.809Z,64.34
2022-09-17T13:49:16.435Z,63.46
2022-09-17T13:54:21.124Z,62.46
2022-09-17T13:59:27.047Z,63.63
2022-09-17T14:04:48.436Z,64.68
2022-09-17T14:09:59.495Z,62.86
2022-09-17T14:15:01.193Z,67.85
2022-09-17T14:20:05.531Z,68.81
2022-09-17T14:25:16.998Z,69.63
2022-09-17T14:30:23.665Z,69.36
2022-09-17T14:35:39.828Z,66.21
2022-09-17T14:40:45.910Z,66.29
2022-09-17T14:45:52.054Z,67.23
2022-09-17T14:51:17.384Z,68.49
2022-09-17T14:56:22.264Z,68.54
2022-09-17T15:01:27.010Z,69.87
2022-09-17T15:06:28.625Z,69.84
2022-09-17T15:11:35.454Z,69.60
2022-09-17T15:16:37.793Z,69.79
2022-09-17T15:21:44.690Z,66.47
2022-09-17T15:26:49.661Z,64.49
2022-09-17T15:31:51.420Z,62.45
2022-09-17T15:37:21.647Z,61.93
2022-09-17T15:42:30.067Z,61.81
2022-09-17T15:48:09.057Z,62.13
2022-09-17T15:53:14.570Z,62.40
2022-09-17T15:58:24.945Z,61.79
2022-09-17T16:03:39.431Z,63.99
2022-09-17T16:08:42.528Z,64.51
2022-09-17T16:13:51.177Z,65.44
2022-09-17T16:18:52.963Z,66.76
2022-09-17T16:23:54.670Z,67.58
2022-09-17T16:29:02.207Z,66.85
2022-09-17T16:34:03.837Z,67.82
2022-09-17T16:39:05.466Z,68.84
2022-09-17T16:44:07.195Z,69.47
2022-09-17T16:49:08.810Z,70.29
2022-09-17T16:54:10.452Z,68.80
2022-09-17T16:59:12.077Z,68.91
2022-09-17T17:04:13.675Z,67.10
2022-09-17T17:09:15.402Z,68.16
2022-09-17T17:14:17.014Z,67.55
2022-09-17T17:19:18.603Z,67.23
2022-09-17T17:24:20.249Z,68.47
2022-09-17T17:29:22.218Z,68.87
2022-09-17T17:34:23.957Z,69.54
2022-09-17T17:39:25.615Z,70.13
2022-09-17T17:44:27.197Z,70.71
2022-09-17T17:49:28.785Z,71.41
2022-09-17T17:54:30.536Z,71.39
2022-09-17T17:59:32.242Z,72.06
2022-09-17T18:04:33.883Z,72.33
2022-09-17T18:09:35.898Z,73.06
2022-09-17T18:14:37.493Z,73.64
2022-09-17T18:19:39.099Z,74.62
2022-09-17T18:24:40.707Z,75.19
2022-09-17T18:29:42.340Z,75.69
2022-09-17T18:34:43.924Z,76.42
2022-09-17T18:39:58.028Z,76.72
2022-09-17T18:45:00.316Z,77.36
2022-09-17T18:50:01.928Z,77.69
2022-09-17T18:55:03.661Z,77.50
2022-09-17T19:00:08.247Z,77.76
2022-09-17T19:05:09.894Z,77.95
2022-09-17T19:10:11.511Z,77.57
2022-09-17T19:15:13.139Z,77.58
2022-09-17T19:20:15.071Z,78.06
2022-09-17T19:25:16.803Z,79.04
2022-09-17T19:30:18.470Z,79.03
2022-09-17T19:35:20.096Z,78.96
2022-09-17T19:40:21.788Z,78.83
2022-09-17T19:45:24.503Z,78.71
2022-09-17T19:50:26.126Z,80.48
2022-09-17T19:55:27.717Z,83.43
2022-09-17T20:00:29.962Z,87.33
2022-09-17T20:05:31.682Z,88.19
2022-09-17T20:10:37.382Z,89.24
2022-09-17T20:15:39.039Z,90.09
2022-09-17T20:20:43.761Z,91.31
2022-09-17T20:25:51.956Z,93.25
2022-09-17T20:31:04.869Z,94.05
2022-09-17T20:36:10.843Z,94.83
2022-09-17T20:41:13.742Z,97.13
2022-09-17T20:46:16.872Z,96.27
2022-09-17T20:51:20.888Z,96.95
2022-09-17T20:56:28.514Z,97.77
2022-09-17T21:01:34.467Z,99.16
2022-09-17T21:06:38.991Z,96.26
2022-09-17T21:11:40.654Z,97.41
2022-09-17T21:16:42.425Z,96.28
2022-09-17T21:21:44.540Z,94.19
2022-09-17T21:26:46.219Z,94.73
2022-09-17T21:31:48.053Z,93.13
2022-09-17T21:36:51.543Z,93.02
2022-09-17T21:41:53.364Z,92.40
2022-09-17T21:46:57.574Z,92.41
2022-09-17T21:51:59.332Z,94.87
2022-09-17T21:57:01.077Z,97.00
2022-09-17T22:02:03.989Z,99.39
2022-09-17T22:07:05.642Z,99.24
2022-09-17T22:12:07.635Z,100.00
2022-09-17T22:17:09.271Z,99.77
2022-09-17T22:22:10.853Z,100.00
2022-09-17T22:27:12.473Z,100.00
2022-09-17T22:32:14.073Z,99.41
2022-09-17T22:37:15.829Z,98.52
2022-09-17T22:42:17.430Z,98.61
2022-09-17T22:47:19.009Z,98.87
2022-09-17T22:52:20.607Z,100.00
2022-09-17T22:57:22.203Z,100.00
2022-09-17T23:02:23.845Z,100.00
2022-09-17T23:07:25.464Z,100.00
2022-09-17T23:12:27.100Z,100.00
2022-09-17T23:17:29.545Z,100.00
2022-09-17T23:22:31.421Z,100.00
2022-09-17T23:27:33.025Z,100.00
2022-09-17T23:32:34.615Z,100.00
2022-09-17T23:37:36.256Z,100.00
2022-09-17T23:42:37.979Z,100.00
2022-09-17T23:47:39.593Z,100.00
2022-09-17T23:52:41.383Z,100.00
2022-09-17T23:57:42.973Z,100.00
